createdAt,value
2022-09-25T00:04:34.456Z,8.52
2022-09-25T00:07:03.387Z,13.18
2022-09-25T00:09:32.248Z,11.65
2022-09-25T00:12:01.615Z,9.73
2022-09-25T00:14:30.712Z,10.40
2022-09-25T00:16:57.408Z,11.80
2022-09-25T00:19:42.707Z,9.75
2022-09-25T00:22:12.066Z,9.70
2022-09-25T00:24:38.819Z,12.15
2022-09-25T00:27:08.539Z,11.63
2022-09-25T00:29:39.527Z,10.15
2022-09-25T00:32:08.330Z,10.95
2022-09-25T00:34:35.178Z,10.20
2022-09-25T00:37:01.971Z,9.95
2022-09-25T00:39:31.702Z,10.13
2022-09-25T00:42:00.694Z,11.55
2022-09-25T00:45:03.978Z,10.52
2022-09-25T00:47:51.897Z,12.52
2022-09-25T00:50:37.125Z,12.35
2022-09-25T00:53:11.699Z,9.55
2022-09-25T00:55:38.721Z,10.40
2022-09-25T00:58:06.825Z,9.32
2022-09-25T01:00:36.025Z,10.88
2022-09-25T01:05:34.133Z,9.77
2022-09-25T01:08:02.341Z,11.30
2022-09-25T01:10:29.378Z,11.10
2022-09-25T01:12:56.684Z,9.60
2022-09-25T01:15:32.456Z,11.77
2022-09-25T01:18:36.734Z,10.80
2022-09-25T01:21:32.501Z,8.20
2022-09-25T01:24:08.119Z,9.77
2022-09-25T01:26:44.205Z,11.15
2022-09-25T01:29:25.534Z,11.95
2022-09-25T01:31:55.184Z,9.90
2022-09-25T01:34:28.599Z,12.50
2022-09-25T01:37:04.270Z,9.25
2022-09-25T01:39:45.626Z,9.98
2022-09-25T01:42:44.787Z,11.48
2022-09-25T01:47:48.993Z,10.35
2022-09-25T01:50:32.837Z,8.77
2022-09-25T01:53:08.224Z,8.70
2022-09-25T01:55:40.996Z,9.15
2022-09-25T01:58:30.826Z,7.80
2022-09-25T02:01:10.536Z,9.30
2022-09-25T02:03:45.801Z,9.68
2022-09-25T02:06:19.788Z,8.85
2022-09-25T02:08:52.598Z,10.80
2022-09-25T02:11:19.805Z,8.63
2022-09-25T02:13:56.650Z,10.98
2022-09-25T02:16:29.210Z,8.98
2022-09-25T02:19:18.209Z,10.70
2022-09-25T02:21:50.246Z,8.38
2022-09-25T02:24:27.447Z,10.27
2022-09-25T02:26:54.203Z,10.65
2022-09-25T02:29:21.430Z,8.48
2022-09-25T02:31:59.731Z,10.38
2022-09-25T02:34:29.167Z,10.98
2022-09-25T02:36:58.535Z,10.60
2022-09-25T02:42:27.491Z,8.52
2022-09-25T02:45:12.318Z,8.75
2022-09-25T02:48:13.199Z,9.32
2022-09-25T02:51:06.032Z,12.82
2022-09-25T02:53:32.660Z,10.48
2022-09-25T02:56:13.212Z,8.93
2022-09-25T02:58:41.622Z,10.05
2022-09-25T03:01:10.784Z,9.20
2022-09-25T03:03:38.813Z,10.57
2022-09-25T03:06:06.871Z,7.93
2022-09-25T03:08:39.509Z,8.65
2022-09-25T03:11:19.769Z,8.75
2022-09-25T03:16:36.430Z,9.38
2022-09-25T03:19:03.710Z,9.35
2022-09-25T03:21:33.028Z,8.43
2022-09-25T03:24:01.173Z,9.05
2022-09-25T03:26:30.507Z,10.20
2022-09-25T03:28:58.437Z,12.30
2022-09-25T03:31:25.177Z,9.73
2022-09-25T03:33:52.236Z,7.47
2022-09-25T03:36:23.118Z,7.18
2022-09-25T03:38:52.546Z,8.30
2022-09-25T03:43:51.734Z,8.90
2022-09-25T03:46:20.730Z,9.73
2022-09-25T03:48:49.790Z,8.98
2022-09-25T03:51:16.489Z,10.18
2022-09-25T03:53:43.217Z,9.45
2022-09-25T03:56:15.634Z,8.23
2022-09-25T03:58:44.843Z,7.60
2022-09-25T04:01:11.886Z,6.75
2022-09-25T04:03:39.565Z,8.00
2022-09-25T04:06:07.873Z,10.88
2022-09-25T04:08:37.562Z,11.02
2022-09-25T04:11:04.846Z,8.93
2022-09-25T04:13:36.445Z,9.63
2022-09-25T04:16:09.632Z,6.88
2022-09-25T04:18:38.743Z,8.82
2022-09-25T04:21:12.124Z,9.20
2022-09-25T04:23:42.281Z,7.95
2022-09-25T04:26:14.325Z,7.95
2022-09-25T04:28:45.515Z,8.05
2022-09-25T04:31:12.224Z,6.80
2022-09-25T04:33:50.482Z,11.00
2022-09-25T04:36:20.196Z,7.88
2022-09-25T04:38:48.477Z,9.18
2022-09-25T04:41:20.157Z,11.95
2022-09-25T04:43:47.465Z,9.57
2022-09-25T04:46:21.080Z,7.82
2022-09-25T04:48:49.160Z,9.27
2022-09-25T04:51:18.299Z,10.65
2022-09-25T04:53:47.331Z,10.63
2022-09-25T04:56:17.086Z,8.25
2022-09-25T04:58:48.542Z,8.23
2022-09-25T05:01:19.799Z,8.60
2022-09-25T05:03:53.691Z,9.85
2022-09-25T05:06:23.406Z,6.50
2022-09-25T05:08:50.645Z,9.52
2022-09-25T05:11:19.765Z,8.82
2022-09-25T05:13:50.252Z,8.10
2022-09-25T05:16:19.304Z,8.25
2022-09-25T05:18:46.381Z,8.70
2022-09-25T05:21:13.094Z,8.80
2022-09-25T05:23:40.122Z,9.63
2022-09-25T05:26:07.304Z,7.80
2022-09-25T05:28:34.493Z,7.70
2022-09-25T05:31:08.956Z,6.97
2022-09-25T05:33:38.539Z,6.03
2022-09-25T05:36:07.847Z,8.20
2022-09-25T05:41:08.951Z,6.68
2022-09-25T05:43:42.961Z,7.22
2022-09-25T05:46:11.023Z,6.60
2022-09-25T05:48:40.575Z,7.53
2022-09-25T05:51:07.464Z,12.18
2022-09-25T05:53:34.703Z,5.80
2022-09-25T05:56:05.645Z,7.82
2022-09-25T05:58:38.799Z,8.75
2022-09-25T06:01:06.620Z,9.48
2022-09-25T06:03:36.222Z,8.10
2022-09-25T06:06:02.905Z,8.73
2022-09-25T06:08:32.835Z,5.78
2022-09-25T06:11:02.398Z,6.47
2022-09-25T06:13:31.991Z,7.45
2022-09-25T06:15:59.053Z,6.53
2022-09-25T06:18:26.357Z,7.20
2022-09-25T06:20:59.941Z,6.85
2022-09-25T06:23:29.361Z,6.47
2022-09-25T06:26:02.885Z,6.38
2022-09-25T06:28:30.099Z,6.80
2022-09-25T06:31:00.175Z,7.15
2022-09-25T06:33:26.892Z,5.95
2022-09-25T06:35:53.567Z,5.47
2022-09-25T06:38:22.744Z,5.95
2022-09-25T06:40:56.085Z,7.65
2022-09-25T06:43:26.440Z,5.05
2022-09-25T06:45:55.823Z,5.50
2022-09-25T06:50:56.612Z,8.73
2022-09-25T06:53:24.597Z,5.57
2022-09-25T06:55:52.320Z,9.93
2022-09-25T06:58:20.939Z,9.90
2022-09-25T07:00:48.604Z,5.40
2022-09-25T07:03:33.818Z,8.98
2022-09-25T07:06:08.777Z,7.78
2022-09-25T07:08:40.220Z,5.78
2022-09-25T07:11:07.036Z,7.30
2022-09-25T07:13:38.309Z,5.85
2022-09-25T07:16:11.657Z,10.48
2022-09-25T07:18:41.282Z,9.63
2022-09-25T07:21:19.153Z,6.32
2022-09-25T07:23:52.083Z,6.18
2022-09-25T07:26:22.599Z,5.97
2022-09-25T07:28:59.379Z,9.65
2022-09-25T07:31:33.811Z,4.80
2022-09-25T07:34:05.887Z,5.70
2022-09-25T07:36:35.493Z,7.82
2022-09-25T07:39:02.134Z,6.78
2022-09-25T07:41:34.332Z,7.45
2022-09-25T07:44:18.069Z,5.90
2022-09-25T07:46:47.830Z,7.75
2022-09-25T07:49:14.583Z,5.72
2022-09-25T07:51:41.355Z,8.90
2022-09-25T07:54:12.856Z,5.43
2022-09-25T07:59:06.697Z,7.88
2022-09-25T08:01:40.976Z,8.35
2022-09-25T08:04:10.329Z,7.80
2022-09-25T08:06:39.313Z,6.25
2022-09-25T08:09:10.317Z,8.05
2022-09-25T08:11:37.558Z,10.27
2022-09-25T08:14:04.320Z,10.15
2022-09-25T08:16:31.017Z,8.40
2022-09-25T08:19:00.024Z,6.55
2022-09-25T08:21:26.683Z,6.43
2022-09-25T08:23:54.336Z,13.45
2022-09-25T08:26:25.676Z,10.02
2022-09-25T08:28:54.576Z,7.03
2022-09-25T08:31:26.399Z,9.52
2022-09-25T08:33:54.415Z,8.98
2022-09-25T08:36:24.107Z,9.27
2022-09-25T08:38:56.420Z,9.02
2022-09-25T08:41:26.294Z,7.45
2022-09-25T08:44:18.203Z,6.60
2022-09-25T08:47:29.535Z,6.15
2022-09-25T08:50:11.132Z,7.38
2022-09-25T08:52:42.293Z,13.45
2022-09-25T08:55:49.861Z,7.07
2022-09-25T08:58:35.120Z,7.30
2022-09-25T09:01:04.936Z,6.47
2022-09-25T09:03:44.422Z,6.50
2022-09-25T09:06:16.345Z,7.75
2022-09-25T09:08:46.146Z,8.02
2022-09-25T09:11:18.053Z,6.68
2022-09-25T09:14:06.445Z,5.07
2022-09-25T09:16:45.011Z,5.65
2022-09-25T09:19:12.851Z,4.63
2022-09-25T09:21:44.524Z,9.23
2022-09-25T09:24:23.907Z,9.20
2022-09-25T09:27:27.478Z,4.18
2022-09-25T09:30:06.136Z,7.70
2022-09-25T09:32:39.149Z,4.75
2022-09-25T09:35:15.223Z,5.60
2022-09-25T09:37:47.249Z,2.75
2022-09-25T09:40:26.267Z,6.57
2022-09-25T09:43:04.198Z,5.35
2022-09-25T09:45:38.611Z,2.88
2022-09-25T09:48:06.432Z,3.28
2022-09-25T09:50:47.199Z,2.95
2022-09-25T09:53:55.847Z,3.08
2022-09-25T09:56:35.830Z,3.58
2022-09-25T09:59:41.292Z,4.90
2022-09-25T10:02:40.651Z,4.55
2022-09-25T10:05:30.706Z,2.88
2022-09-25T10:07:57.458Z,12.45
2022-09-25T10:10:37.397Z,5.22
2022-09-25T10:13:10.294Z,3.58
2022-09-25T10:15:42.888Z,4.60
2022-09-25T10:18:09.772Z,2.30
2022-09-25T10:20:43.358Z,1.98
2022-09-25T10:23:28.278Z,1.70
2022-09-25T10:26:00.092Z,3.05
2022-09-25T10:28:28.412Z,2.13
2022-09-25T10:30:56.284Z,2.07
2022-09-25T10:33:25.025Z,4.63
2022-09-25T10:35:55.073Z,2.15
2022-09-25T10:38:25.778Z,3.20
2022-09-25T10:41:19.983Z,2.15
2022-09-25T10:43:57.059Z,2.03
2022-09-25T10:49:41.442Z,5.53
2022-09-25T10:52:10.955Z,2.75
2022-09-25T10:54:44.775Z,2.15
2022-09-25T10:57:34.223Z,4.15
2022-09-25T11:00:06.468Z,1.63
2022-09-25T11:02:34.246Z,2.40
2022-09-25T11:05:01.890Z,4.97
2022-09-25T11:07:28.942Z,2.10
2022-09-25T11:10:00.323Z,2.92
2022-09-25T11:12:31.436Z,2.20
2022-09-25T11:15:05.863Z,2.80
2022-09-25T11:17:42.125Z,1.48
2022-09-25T11:20:19.315Z,5.25
2022-09-25T11:22:50.505Z,4.97
2022-09-25T11:25:26.324Z,2.70
2022-09-25T11:28:04.864Z,4.88
2022-09-25T11:30:43.535Z,4.68
2022-09-25T11:33:36.581Z,3.10
2022-09-25T11:36:07.449Z,2.97
2022-09-25T11:38:58.247Z,3.45
2022-09-25T11:41:37.140Z,4.10
2022-09-25T11:44:34.639Z,4.07
2022-09-25T11:47:18.078Z,5.38
2022-09-25T11:49:48.462Z,4.93
2022-09-25T11:52:43.784Z,2.75
2022-09-25T11:55:28.701Z,4.75
2022-09-25T11:58:16.791Z,2.80
2022-09-25T12:00:50.685Z,3.78
2022-09-25T12:03:30.366Z,3.08
2022-09-25T12:06:01.082Z,3.50
2022-09-25T12:08:49.047Z,4.50
2022-09-25T12:11:28.592Z,2.88
2022-09-25T12:14:11.988Z,1.58
2022-09-25T12:16:48.030Z,2.65
2022-09-25T12:19:36.606Z,4.43
2022-09-25T12:22:14.096Z,2.70
2022-09-25T12:24:58.812Z,1.50
2022-09-25T12:27:47.667Z,1.80
2022-09-25T12:30:23.977Z,2.05
2022-09-25T12:32:53.649Z,3.80
2022-09-25T12:35:39.158Z,3.17
2022-09-25T12:38:15.659Z,3.78
2022-09-25T12:41:07.501Z,1.48
2022-09-25T12:43:41.276Z,2.88
2022-09-25T12:46:32.589Z,3.47
2022-09-25T12:49:13.559Z,2.30
2022-09-25T12:51:43.876Z,3.22
2022-09-25T12:54:22.852Z,1.83
2022-09-25T12:57:14.202Z,4.03
2022-09-25T12:59:49.240Z,3.17
2022-09-25T13:03:15.085Z,2.90
2022-09-25T13:05:57.438Z,2.83
2022-09-25T13:08:40.074Z,3.55
2022-09-25T13:11:12.628Z,2.72
2022-09-25T13:13:49.010Z,2.50
2022-09-25T13:16:16.157Z,1.85
2022-09-25T13:19:11.261Z,2.03
2022-09-25T13:21:45.740Z,3.05
2022-09-25T13:24:17.688Z,2.08
2022-09-25T13:26:51.301Z,3.95
2022-09-25T13:29:35.597Z,1.90
2022-09-25T13:32:23.874Z,1.48
2022-09-25T13:35:02.935Z,2.97
2022-09-25T13:37:32.246Z,5.65
2022-09-25T13:40:18.615Z,2.78
2022-09-25T13:42:46.339Z,3.22
2022-09-25T13:45:22.436Z,3.53
2022-09-25T13:47:54.873Z,2.88
2022-09-25T13:50:24.552Z,2.28
2022-09-25T13:53:18.280Z,3.60
2022-09-25T13:55:49.975Z,2.05
2022-09-25T13:58:21.158Z,5.00
2022-09-25T14:00:53.897Z,6.70
2022-09-25T14:03:46.077Z,3.45
2022-09-25T14:06:17.669Z,2.00
2022-09-25T14:08:50.741Z,3.55
2022-09-25T14:11:19.919Z,4.10
2022-09-25T14:16:38.443Z,3.53
2022-09-25T14:19:06.687Z,1.83
2022-09-25T14:21:35.220Z,2.60
2022-09-25T14:24:32.906Z,2.58
2022-09-25T14:27:06.280Z,3.63
2022-09-25T14:29:40.376Z,7.40
2022-09-25T14:32:53.821Z,4.30
2022-09-25T14:35:25.084Z,4.78
2022-09-25T14:38:36.944Z,4.72
2022-09-25T14:41:23.027Z,3.83
2022-09-25T14:43:52.685Z,4.65
2022-09-25T14:46:27.120Z,7.20
2022-09-25T14:48:59.789Z,3.75
2022-09-25T14:51:43.511Z,2.80
2022-09-25T14:54:15.959Z,4.43
2022-09-25T14:56:48.948Z,3.65
2022-09-25T14:59:37.823Z,3.92
2022-09-25T15:02:04.750Z,3.95
2022-09-25T15:04:34.563Z,2.58
2022-09-25T15:07:12.413Z,3.47
2022-09-25T15:09:49.063Z,4.53
2022-09-25T15:12:33.881Z,6.45
2022-09-25T15:15:11.428Z,4.78
2022-09-25T15:17:47.868Z,3.28
2022-09-25T15:20:20.998Z,2.85
2022-09-25T15:22:52.885Z,3.03
2022-09-25T15:25:39.833Z,3.47
2022-09-25T15:30:41.741Z,4.95
2022-09-25T15:34:02.336Z,6.07
2022-09-25T15:36:29.131Z,3.30
2022-09-25T15:39:02.793Z,4.80
2022-09-25T15:41:29.553Z,5.18
2022-09-25T15:44:19.014Z,4.03
2022-09-25T15:46:50.282Z,4.78
2022-09-25T15:49:24.536Z,4.85
2022-09-25T15:52:00.350Z,7.50
2022-09-25T15:54:45.225Z,4.78
2022-09-25T15:57:14.928Z,11.15
2022-09-25T16:00:03.343Z,6.78
2022-09-25T16:05:24.419Z,6.88
2022-09-25T16:07:51.167Z,6.10
2022-09-25T16:10:17.761Z,5.05
2022-09-25T16:12:49.203Z,5.85
2022-09-25T16:15:28.529Z,5.00
2022-09-25T16:20:37.191Z,6.65
2022-09-25T16:23:06.520Z,5.70
2022-09-25T16:25:43.353Z,9.48
2022-09-25T16:28:36.324Z,4.68
2022-09-25T16:31:08.191Z,4.95
2022-09-25T16:33:39.020Z,6.85
2022-09-25T16:36:17.621Z,7.28
2022-09-25T16:39:07.932Z,5.70
2022-09-25T16:41:38.765Z,5.22
2022-09-25T16:44:17.882Z,5.53
2022-09-25T16:46:55.431Z,4.75
2022-09-25T16:49:26.689Z,6.50
2022-09-25T16:51:54.837Z,7.32
2022-09-25T16:54:22.575Z,6.70
2022-09-25T16:56:51.695Z,5.68
2022-09-25T16:59:22.166Z,8.38
2022-09-25T17:02:02.380Z,5.20
2022-09-25T17:04:30.888Z,6.72
2022-09-25T17:06:58.647Z,6.27
2022-09-25T17:09:29.160Z,7.28
2022-09-25T17:12:07.327Z,6.30
2022-09-25T17:14:34.264Z,6.93
2022-09-25T17:17:00.988Z,8.70
2022-09-25T17:19:28.006Z,7.40
2022-09-25T17:21:58.087Z,9.07
2022-09-25T17:24:27.961Z,8.68
2022-09-25T17:26:54.793Z,8.95
2022-09-25T17:29:22.200Z,10.15
2022-09-25T17:31:49.005Z,16.48
2022-09-25T17:34:28.515Z,12.10
2022-09-25T17:36:58.026Z,8.25
2022-09-25T17:39:27.588Z,9.43
2022-09-25T17:41:54.694Z,9.00
2022-09-25T17:44:23.749Z,9.63
2022-09-25T17:46:51.889Z,9.02
2022-09-25T17:49:21.697Z,8.82
2022-09-25T17:51:48.517Z,10.10
2022-09-25T17:54:23.302Z,9.93
2022-09-25T17:56:52.266Z,11.40
2022-09-25T17:59:22.273Z,10.65
2022-09-25T18:01:54.821Z,9.82
2022-09-25T18:04:24.000Z,10.25
2022-09-25T18:06:53.187Z,10.05
2022-09-25T18:09:20.122Z,13.48
2022-09-25T18:11:49.162Z,12.35
2022-09-25T18:14:18.290Z,10.45
2022-09-25T18:16:45.308Z,10.07
2022-09-25T18:19:38.060Z,12.95
2022-09-25T18:22:21.832Z,11.98
2022-09-25T18:24:56.267Z,11.15
2022-09-25T18:27:31.005Z,13.20
2022-09-25T18:29:59.946Z,12.50
2022-09-25T18:32:31.389Z,12.40
2022-09-25T18:35:03.011Z,12.18
2022-09-25T18:37:29.815Z,13.60
2022-09-25T18:39:58.801Z,12.30
2022-09-25T18:42:25.484Z,12.85
2022-09-25T18:44:53.362Z,13.10
2022-09-25T18:47:22.202Z,14.35
2022-09-25T18:49:51.678Z,13.77
2022-09-25T18:52:23.391Z,18.52
2022-09-25T18:57:19.203Z,15.63
2022-09-25T18:59:50.395Z,15.80
2022-09-25T19:02:22.519Z,14.35
2022-09-25T19:04:51.316Z,15.38
2022-09-25T19:07:19.663Z,14.18
2022-09-25T19:09:46.493Z,14.33
2022-09-25T19:12:17.697Z,15.15
2022-09-25T19:14:45.477Z,14.68
2022-09-25T19:17:15.903Z,16.48
2022-09-25T19:19:46.339Z,16.58
2022-09-25T19:22:19.928Z,17.35
2022-09-25T19:24:47.808Z,17.10
2022-09-25T19:27:18.962Z,18.88
2022-09-25T19:29:46.072Z,19.70
2022-09-25T19:32:15.885Z,22.10
2022-09-25T19:34:42.877Z,20.90
2022-09-25T19:37:12.562Z,20.60
2022-09-25T19:39:58.719Z,21.42
2022-09-25T19:42:37.736Z,21.90
2022-09-25T19:45:04.813Z,20.98
2022-09-25T19:47:32.061Z,19.98
2022-09-25T19:50:03.515Z,19.90
2022-09-25T19:52:30.341Z,22.13
2022-09-25T19:54:59.379Z,21.48
2022-09-25T19:57:31.015Z,20.15
2022-09-25T19:59:57.744Z,21.25
2022-09-25T20:02:24.546Z,22.20
2022-09-25T20:04:54.113Z,21.55
2022-09-25T20:07:23.334Z,22.85
2022-09-25T20:09:50.047Z,22.25
2022-09-25T20:12:16.713Z,20.20
2022-09-25T20:14:45.772Z,22.00
2022-09-25T20:17:17.088Z,21.75
2022-09-25T20:19:49.678Z,23.30
2022-09-25T20:22:16.838Z,24.45
2022-09-25T20:24:48.268Z,23.20
2022-09-25T20:27:15.695Z,22.63
2022-09-25T20:32:13.372Z,21.77
2022-09-25T20:37:06.717Z,21.65
2022-09-25T20:39:35.621Z,21.70
2022-09-25T20:42:02.692Z,20.05
2022-09-25T20:44:31.547Z,22.63
2022-09-25T20:47:00.621Z,21.88
2022-09-25T20:49:31.029Z,22.60
2022-09-25T20:51:57.775Z,22.73
2022-09-25T20:54:27.365Z,23.77
2022-09-25T20:56:56.753Z,23.85
2022-09-25T20:59:23.649Z,22.23
2022-09-25T21:01:54.153Z,22.15
2022-09-25T21:04:20.891Z,21.42
2022-09-25T21:06:47.624Z,20.27
2022-09-25T21:09:25.496Z,18.83
2022-09-25T21:11:53.832Z,20.67
2022-09-25T21:14:26.106Z,20.15
2022-09-25T21:16:56.373Z,19.75
2022-09-25T21:19:23.967Z,19.20
2022-09-25T21:21:51.111Z,17.73
2022-09-25T21:24:19.598Z,19.77
2022-09-25T21:26:47.260Z,22.20
2022-09-25T21:29:20.064Z,18.85
2022-09-25T21:31:50.847Z,17.45
2022-09-25T21:34:21.046Z,17.20
2022-09-25T21:36:50.246Z,17.10
2022-09-25T21:39:21.173Z,16.60
2022-09-25T21:41:50.938Z,17.23
2022-09-25T21:44:20.530Z,17.63
2022-09-25T21:46:47.232Z,18.30
2022-09-25T21:49:20.766Z,16.20
2022-09-25T21:51:48.281Z,16.38
2022-09-25T21:54:17.649Z,16.52
2022-09-25T21:56:49.139Z,14.65
2022-09-25T21:59:16.429Z,14.40
2022-09-25T22:01:43.281Z,13.75
2022-09-25T22:04:12.351Z,14.57
2022-09-25T22:06:41.472Z,13.75
2022-09-25T22:09:17.275Z,13.45
2022-09-25T22:11:47.664Z,13.93
2022-09-25T22:14:16.565Z,13.20
2022-09-25T22:16:48.823Z,11.82
2022-09-25T22:19:20.080Z,15.75
2022-09-25T22:21:48.352Z,13.07
2022-09-25T22:24:18.266Z,13.80
2022-09-25T22:26:47.382Z,13.90
2022-09-25T22:29:17.122Z,14.15
2022-09-25T22:31:44.333Z,15.75
2022-09-25T22:34:22.189Z,15.00
2022-09-25T22:36:57.878Z,13.95
2022-09-25T22:39:26.211Z,14.95
2022-09-25T22:41:56.333Z,13.75
2022-09-25T22:44:26.046Z,14.13
2022-09-25T22:46:52.782Z,15.05
2022-09-25T22:49:19.517Z,14.98
2022-09-25T22:51:48.865Z,13.88
2022-09-25T22:56:47.129Z,14.43
2022-09-25T22:59:18.441Z,13.60
2022-09-25T23:01:49.912Z,15.00
2022-09-25T23:04:19.654Z,14.82
2022-09-25T23:06:46.844Z,15.70
2022-09-25T23:09:18.570Z,16.55
2022-09-25T23:11:45.867Z,14.95
2022-09-25T23:14:17.074Z,15.38
2022-09-25T23:16:45.052Z,14.90
2022-09-25T23:19:14.937Z,15.45
2022-09-25T23:21:42.124Z,15.90
2022-09-25T23:24:14.933Z,15.27
2022-09-25T23:26:41.875Z,15.93
2022-09-25T23:29:17.497Z,16.40
2022-09-25T23:31:45.844Z,17.70
2022-09-25T23:34:15.226Z,14.52
2022-09-25T23:36:46.436Z,16.23
2022-09-25T23:39:18.639Z,14.18
2022-09-25T23:41:45.713Z,14.90
2022-09-25T23:44:12.404Z,16.13
2022-09-25T23:46:44.087Z,15.90
2022-09-25T23:49:14.174Z,14.77
2022-09-25T23:51:43.532Z,14.85
2022-09-25T23:54:10.512Z,13.63
2022-09-25T23:56:41.085Z,14.25
2022-09-25T23:59:11.237Z,14.20
